createdAt,value
2018-11-25T00:00:41.741Z,58.77
2018-11-25T00:03:10.027Z,62.10
2018-11-25T00:05:38.322Z,56.60
2018-11-25T00:08:06.595Z,52.57
2018-11-25T00:10:34.871Z,64.10
2018-11-25T00:13:03.136Z,56.23
2018-11-25T00:15:31.427Z,60.37
2018-11-25T00:17:59.751Z,59.17
2018-11-25T00:20:27.994Z,57.17
2018-11-25T00:22:56.252Z,59.83
2018-11-25T00:25:24.504Z,58.70
2018-11-25T00:27:52.802Z,62.23
2018-11-25T00:30:21.158Z,57.57
2018-11-25T00:32:49.396Z,59.77
2018-11-25T00:35:17.683Z,60.87
2018-11-25T00:37:48.327Z,56.37
2018-11-25T00:40:14.791Z,55.40
2018-11-25T00:42:43.328Z,58.67
2018-11-25T00:45:12.189Z,55.60
2018-11-25T00:47:40.632Z,55.93
2018-11-25T00:50:09.591Z,54.83
2018-11-25T00:52:37.848Z,53.40
2018-11-25T00:55:07.468Z,54.87
2018-11-25T00:57:35.718Z,54.63
2018-11-25T01:00:04.640Z,53.87
2018-11-25T01:02:32.896Z,53.10
2018-11-25T01:05:01.160Z,54.30
2018-11-25T01:07:29.439Z,56.77
2018-11-25T01:09:57.748Z,49.03
2018-11-25T01:12:25.995Z,49.77
2018-11-25T01:14:54.264Z,50.83
2018-11-25T01:17:22.545Z,51.90
2018-11-25T01:19:50.825Z,48.93
2018-11-25T01:22:19.096Z,50.03
2018-11-25T01:24:47.380Z,49.23
2018-11-25T01:27:15.731Z,49.77
2018-11-25T01:29:43.997Z,51.03
2018-11-25T01:32:12.305Z,51.03
2018-11-25T01:34:40.632Z,48.20
2018-11-25T01:37:08.878Z,51.33
2018-11-25T01:39:37.180Z,55.07
2018-11-25T01:42:05.447Z,53.60
2018-11-25T01:44:33.731Z,55.77
2018-11-25T01:47:01.983Z,49.03
2018-11-25T01:49:30.312Z,54.07
2018-11-25T01:51:58.685Z,49.63
2018-11-25T01:54:27.003Z,54.93
2018-11-25T01:56:55.314Z,54.60
2018-11-25T01:59:23.583Z,55.73
2018-11-25T02:01:52.009Z,46.13
2018-11-25T02:04:20.331Z,46.13
2018-11-25T02:06:48.653Z,47.60
2018-11-25T02:09:16.971Z,44.33
2018-11-25T02:11:45.233Z,51.37
2018-11-25T02:14:13.539Z,45.43
2018-11-25T02:16:41.836Z,47.07
2018-11-25T02:19:10.139Z,49.20
2018-11-25T02:21:38.487Z,45.40
2018-11-25T02:24:06.739Z,45.87
2018-11-25T02:26:34.991Z,45.43
2018-11-25T02:29:03.347Z,47.20
2018-11-25T02:31:31.648Z,48.87
2018-11-25T02:33:59.965Z,42.10
2018-11-25T02:36:28.221Z,46.90
2018-11-25T02:38:56.942Z,47.33
2018-11-25T02:41:25.227Z,49.47
2018-11-25T02:43:53.580Z,44.10
2018-11-25T02:46:21.881Z,47.17
2018-11-25T02:48:50.135Z,44.33
2018-11-25T02:51:18.448Z,46.40
2018-11-25T02:53:46.724Z,48.07
2018-11-25T02:56:15.005Z,49.73
2018-11-25T02:58:43.335Z,47.73
2018-11-25T03:01:11.679Z,45.47
2018-11-25T03:03:39.959Z,47.30
2018-11-25T03:06:08.274Z,47.73
2018-11-25T03:08:36.567Z,50.13
2018-11-25T03:11:04.884Z,42.77
2018-11-25T03:13:33.168Z,46.57
2018-11-25T03:16:01.451Z,45.30
2018-11-25T03:18:29.689Z,46.43
2018-11-25T03:20:57.969Z,44.37
2018-11-25T03:23:26.224Z,46.17
2018-11-25T03:25:54.559Z,50.13
2018-11-25T03:28:22.820Z,49.27
2018-11-25T03:30:51.257Z,48.50
2018-11-25T03:33:19.560Z,43.10
2018-11-25T03:35:47.861Z,44.27
2018-11-25T03:38:16.154Z,50.27
2018-11-25T03:40:44.496Z,44.40
2018-11-25T03:43:12.899Z,46.87
2018-11-25T03:45:41.151Z,42.27
2018-11-25T03:48:09.403Z,42.37
2018-11-25T03:50:37.675Z,48.23
2018-11-25T03:53:05.982Z,51.80
2018-11-25T03:55:34.270Z,45.83
2018-11-25T03:58:02.562Z,41.93
2018-11-25T04:00:30.848Z,42.43
2018-11-25T04:02:59.095Z,44.97
2018-11-25T04:05:27.339Z,43.30
2018-11-25T04:07:55.602Z,37.30
2018-11-25T04:10:23.896Z,43.63
2018-11-25T04:12:52.177Z,38.93
2018-11-25T04:15:20.549Z,43.20
2018-11-25T04:17:48.783Z,34.53
2018-11-25T04:20:20.545Z,39.63
2018-11-25T04:22:49.198Z,35.40
2018-11-25T04:25:17.716Z,31.63
2018-11-25T04:27:45.997Z,37.60
2018-11-25T04:30:14.688Z,38.00
2018-11-25T04:32:43.142Z,38.97
2018-11-25T04:35:11.817Z,38.97
2018-11-25T04:37:40.099Z,38.70
2018-11-25T04:40:09.081Z,41.70
2018-11-25T04:42:37.357Z,40.20
2018-11-25T04:45:06.519Z,35.30
2018-11-25T04:47:34.788Z,42.70
2018-11-25T04:50:03.154Z,48.53
2018-11-25T04:52:31.430Z,43.87
2018-11-25T04:54:59.718Z,41.60
2018-11-25T04:57:27.987Z,51.40
2018-11-25T04:59:56.429Z,48.33
2018-11-25T05:02:24.685Z,56.33
2018-11-25T05:04:52.963Z,52.23
2018-11-25T05:07:21.494Z,53.93
2018-11-25T05:09:49.791Z,53.40
2018-11-25T05:12:18.115Z,59.47
2018-11-25T05:14:46.447Z,60.80
2018-11-25T05:17:14.703Z,53.87
2018-11-25T05:19:43.023Z,59.33
2018-11-25T05:22:11.291Z,61.20
2018-11-25T05:24:39.626Z,61.70
2018-11-25T05:27:08.052Z,62.60
2018-11-25T05:29:36.345Z,68.63
2018-11-25T05:32:04.900Z,61.83
2018-11-25T05:34:33.138Z,64.40
2018-11-25T05:37:01.363Z,68.10
2018-11-25T05:39:29.646Z,67.37
2018-11-25T05:41:57.899Z,76.37
2018-11-25T05:44:27.039Z,75.43
2018-11-25T05:46:55.289Z,73.30
2018-11-25T05:49:23.817Z,74.70
2018-11-25T05:51:52.080Z,75.07
2018-11-25T05:54:20.332Z,80.60
2018-11-25T05:56:48.606Z,78.23
2018-11-25T05:59:16.848Z,69.03
2018-11-25T06:01:45.108Z,79.63
2018-11-25T06:04:13.398Z,77.37
2018-11-25T06:06:41.638Z,76.77
2018-11-25T06:09:09.881Z,77.33
2018-11-25T06:11:38.435Z,78.37
2018-11-25T06:14:06.671Z,81.90
2018-11-25T06:16:34.947Z,85.37
2018-11-25T06:19:03.179Z,67.27
2018-11-25T06:21:31.500Z,70.03
2018-11-25T06:23:59.739Z,72.27
2018-11-25T06:26:27.982Z,77.43
2018-11-25T06:28:56.274Z,75.47
2018-11-25T06:31:24.531Z,70.43
2018-11-25T06:33:53.066Z,62.87
2018-11-25T06:36:21.322Z,67.07
2018-11-25T06:38:49.566Z,70.33
2018-11-25T06:41:18.371Z,78.67
2018-11-25T06:43:46.632Z,77.70
2018-11-25T06:46:14.876Z,67.60
2018-11-25T06:48:43.107Z,64.97
2018-11-25T06:51:11.354Z,63.23
2018-11-25T06:53:39.630Z,66.03
2018-11-25T06:56:07.885Z,65.93
2018-11-25T06:58:36.111Z,68.43
2018-11-25T07:01:04.365Z,65.57
2018-11-25T07:03:32.639Z,56.17
2018-11-25T07:06:00.920Z,59.87
2018-11-25T07:08:29.197Z,63.77
2018-11-25T07:10:57.469Z,57.90
2018-11-25T07:13:25.720Z,59.93
2018-11-25T07:15:53.946Z,58.57
2018-11-25T07:18:22.515Z,61.10
2018-11-25T07:20:50.814Z,62.80
2018-11-25T07:23:19.099Z,59.23
2018-11-25T07:25:47.337Z,61.87
2018-11-25T07:28:18.469Z,64.50
2018-11-25T07:30:43.972Z,63.77
2018-11-25T07:33:12.234Z,65.87
2018-11-25T07:35:40.471Z,63.33
2018-11-25T07:38:08.717Z,58.00
2018-11-25T07:40:37.621Z,58.80
2018-11-25T07:43:05.936Z,70.07
2018-11-25T07:45:34.168Z,62.87
2018-11-25T07:48:02.433Z,63.57
2018-11-25T07:50:30.664Z,62.77
2018-11-25T07:52:58.883Z,76.60
2018-11-25T07:55:27.152Z,73.22
2018-11-25T07:57:55.792Z,67.60
2018-11-25T08:00:24.610Z,70.27
2018-11-25T08:02:52.888Z,66.93
2018-11-25T08:05:23.606Z,75.63
2018-11-25T08:07:51.876Z,64.67
2018-11-25T08:10:20.124Z,67.73
2018-11-25T08:12:48.440Z,66.33
2018-11-25T08:15:17.213Z,72.83
2018-11-25T08:17:45.618Z,66.23
2018-11-25T08:20:14.495Z,74.77
2018-11-25T08:22:42.808Z,68.87
2018-11-25T08:25:13.631Z,64.63
2018-11-25T08:27:41.889Z,59.07
2018-11-25T08:30:25.055Z,58.60
2018-11-25T08:32:53.355Z,61.73
2018-11-25T08:35:21.712Z,66.00
2018-11-25T08:37:49.954Z,57.27
2018-11-25T08:40:19.713Z,65.30
2018-11-25T08:42:48.008Z,57.17
2018-11-25T08:45:16.278Z,57.17
2018-11-25T08:47:44.576Z,59.13
2018-11-25T08:50:13.355Z,57.37
2018-11-25T08:52:41.907Z,58.63
2018-11-25T08:55:24.624Z,49.43
2018-11-25T08:57:53.375Z,52.67
2018-11-25T09:00:22.089Z,58.40
2018-11-25T09:02:50.787Z,51.20
2018-11-25T09:05:19.064Z,50.87
2018-11-25T09:07:47.302Z,47.77
2018-11-25T09:10:16.021Z,47.37
2018-11-25T09:12:44.866Z,51.30
2018-11-25T09:15:15.679Z,48.43
2018-11-25T09:17:43.912Z,52.03
2018-11-25T09:20:15.514Z,48.73
2018-11-25T09:22:43.828Z,49.23
2018-11-25T09:25:15.511Z,54.43
2018-11-25T09:27:43.770Z,47.80
2018-11-25T09:30:19.287Z,50.37
2018-11-25T09:32:47.591Z,43.43
2018-11-25T09:35:15.848Z,45.97
2018-11-25T09:37:44.099Z,49.07
2018-11-25T09:40:17.127Z,43.07
2018-11-25T09:42:45.355Z,45.87
2018-11-25T09:45:14.139Z,46.43
2018-11-25T09:47:42.463Z,42.57
2018-11-25T09:50:13.354Z,44.23
2018-11-25T09:52:41.595Z,39.20
2018-11-25T09:55:13.396Z,37.13
2018-11-25T09:57:42.123Z,39.30
2018-11-25T10:00:15.885Z,38.90
2018-11-25T10:02:44.130Z,36.80
2018-11-25T10:05:12.371Z,34.87
2018-11-25T10:07:40.618Z,37.27
2018-11-25T10:10:12.398Z,36.60
2018-11-25T10:12:40.638Z,45.47
2018-11-25T10:15:09.539Z,34.90
2018-11-25T10:17:37.787Z,40.60
2018-11-25T10:20:10.509Z,37.87
2018-11-25T10:22:38.779Z,36.10
2018-11-25T10:25:08.083Z,33.87
2018-11-25T10:27:36.370Z,28.23
2018-11-25T10:30:05.603Z,31.23
2018-11-25T10:32:33.860Z,26.90
2018-11-25T10:35:02.136Z,30.67
2018-11-25T10:37:30.389Z,27.07
2018-11-25T10:39:58.630Z,30.43
2018-11-25T10:42:26.888Z,24.50
2018-11-25T10:44:55.135Z,34.23
2018-11-25T10:47:23.380Z,30.57
2018-11-25T10:49:51.603Z,31.77
2018-11-25T10:52:21.163Z,28.17
2018-11-25T10:54:49.387Z,33.00
2018-11-25T10:57:17.679Z,31.80
2018-11-25T10:59:45.924Z,31.13
2018-11-25T11:02:19.599Z,32.30
2018-11-25T11:04:53.219Z,31.73
2018-11-25T11:07:21.920Z,27.93
2018-11-25T11:09:50.761Z,29.73
2018-11-25T11:12:19.028Z,32.53
2018-11-25T11:14:47.299Z,34.20
2018-11-25T11:17:15.531Z,30.50
2018-11-25T11:19:43.813Z,35.03
2018-11-25T11:22:12.090Z,30.03
2018-11-25T11:24:40.371Z,29.37
2018-11-25T11:27:08.614Z,34.60
2018-11-25T11:29:36.863Z,31.37
2018-11-25T11:32:05.130Z,32.07
2018-11-25T11:34:33.362Z,31.50
2018-11-25T11:37:01.652Z,28.70
2018-11-25T11:39:29.904Z,32.87
2018-11-25T11:41:58.147Z,29.80
2018-11-25T11:44:26.449Z,27.17
2018-11-25T11:46:54.690Z,30.30
2018-11-25T11:49:23.002Z,28.73
2018-11-25T11:51:51.227Z,28.43
2018-11-25T11:54:19.475Z,29.13
2018-11-25T11:56:47.736Z,31.80
2018-11-25T11:59:16.239Z,36.07
2018-11-25T12:01:44.523Z,32.17
2018-11-25T12:04:12.791Z,35.53
2018-11-25T12:06:41.084Z,35.93
2018-11-25T12:09:09.854Z,36.57
2018-11-25T12:11:38.091Z,33.80
2018-11-25T12:14:06.863Z,36.17
2018-11-25T12:16:35.199Z,38.90
2018-11-25T12:19:03.456Z,35.93
2018-11-25T12:21:31.730Z,38.80
2018-11-25T12:23:59.970Z,38.67
2018-11-25T12:26:28.196Z,39.60
2018-11-25T12:28:56.446Z,36.77
2018-11-25T12:31:24.678Z,40.53
2018-11-25T12:33:52.986Z,42.83
2018-11-25T12:36:21.306Z,42.97
2018-11-25T12:38:49.647Z,40.73
2018-11-25T12:41:17.910Z,46.43
2018-11-25T12:43:46.162Z,38.97
2018-11-25T12:46:14.423Z,40.13
2018-11-25T12:48:42.649Z,40.67
2018-11-25T12:51:11.303Z,40.27
2018-11-25T12:53:39.532Z,41.47
2018-11-25T12:56:07.748Z,45.47
2018-11-25T12:58:36.016Z,43.07
2018-11-25T13:01:04.274Z,46.73
2018-11-25T13:03:32.550Z,44.27
2018-11-25T13:06:01.267Z,46.40
2018-11-25T13:08:29.486Z,45.27
2018-11-25T13:10:57.758Z,46.33
2018-11-25T13:13:25.992Z,42.80
2018-11-25T13:15:54.215Z,47.90
2018-11-25T13:18:22.443Z,46.20
2018-11-25T13:20:50.682Z,52.30
2018-11-25T13:23:18.980Z,52.07
2018-11-25T13:25:47.218Z,52.13
2018-11-25T13:28:15.643Z,61.03
2018-11-25T13:30:43.935Z,63.83
2018-11-25T13:33:12.162Z,52.17
2018-11-25T13:35:40.455Z,57.50
2018-11-25T13:38:08.751Z,61.23
2018-11-25T13:40:36.983Z,62.10
2018-11-25T13:43:05.539Z,58.53
2018-11-25T13:45:33.763Z,62.10
2018-11-25T13:48:02.084Z,66.83
2018-11-25T13:50:30.324Z,66.03
2018-11-25T13:52:58.575Z,63.70
2018-11-25T13:55:27.423Z,70.60
2018-11-25T13:57:56.003Z,76.50
2018-11-25T14:00:25.234Z,78.20
2018-11-25T14:02:53.543Z,67.47
2018-11-25T14:05:21.793Z,71.77
2018-11-25T14:07:50.008Z,69.77
2018-11-25T14:10:23.144Z,72.97
2018-11-25T14:12:51.427Z,67.97
2018-11-25T14:15:19.663Z,71.77
2018-11-25T14:17:47.894Z,66.67
2018-11-25T14:20:16.111Z,74.00
2018-11-25T14:22:44.327Z,67.27
2018-11-25T14:25:13.466Z,73.50
2018-11-25T14:27:41.794Z,67.70
2018-11-25T14:30:15.631Z,70.57
2018-11-25T14:32:43.890Z,75.83
2018-11-25T14:35:12.922Z,70.30
2018-11-25T14:37:41.162Z,71.40
2018-11-25T14:40:10.114Z,68.50
2018-11-25T14:42:38.359Z,66.83
2018-11-25T14:45:08.747Z,75.70
2018-11-25T14:47:36.996Z,60.73
2018-11-25T14:50:06.758Z,56.17
2018-11-25T14:52:35.379Z,62.93
2018-11-25T14:55:03.979Z,67.57
2018-11-25T14:57:32.209Z,63.93
2018-11-25T15:00:00.519Z,68.23
2018-11-25T15:02:28.774Z,65.57
2018-11-25T15:04:56.991Z,62.73
2018-11-25T15:07:25.262Z,56.70
2018-11-25T15:09:53.526Z,60.80
2018-11-25T15:12:21.784Z,61.43
2018-11-25T15:14:50.031Z,58.77
2018-11-25T15:17:18.249Z,62.10
2018-11-25T15:19:46.474Z,58.63
2018-11-25T15:22:14.695Z,62.13
2018-11-25T15:24:42.949Z,63.93
2018-11-25T15:27:11.172Z,57.53
2018-11-25T15:29:39.393Z,58.90
2018-11-25T15:32:07.642Z,62.77
2018-11-25T15:34:35.878Z,62.13
2018-11-25T15:37:04.682Z,58.00
2018-11-25T15:39:32.944Z,58.70
2018-11-25T15:42:01.217Z,65.00
2018-11-25T15:44:29.450Z,64.30
2018-11-25T15:46:58.743Z,65.57
2018-11-25T15:49:26.005Z,64.50
2018-11-25T15:51:55.224Z,70.37
2018-11-25T15:54:22.630Z,63.87
2018-11-25T15:56:50.870Z,63.10
2018-11-25T15:59:19.153Z,64.17
2018-11-25T16:01:47.446Z,67.67
2018-11-25T16:04:15.677Z,68.33
2018-11-25T16:06:43.968Z,59.60
2018-11-25T16:09:12.359Z,68.10
2018-11-25T16:11:40.590Z,62.13
2018-11-25T16:14:08.941Z,60.73
2018-11-25T16:16:37.266Z,69.73
2018-11-25T16:19:05.661Z,61.13
2018-11-25T16:21:33.901Z,60.80
2018-11-25T16:24:02.128Z,65.67
2018-11-25T16:26:31.771Z,62.80
2018-11-25T16:29:01.279Z,57.73
2018-11-25T16:31:29.640Z,59.07
2018-11-25T16:33:57.895Z,61.17
2018-11-25T16:36:26.144Z,54.53
2018-11-25T16:38:54.399Z,55.10
2018-11-25T16:41:22.675Z,59.30
2018-11-25T16:43:50.922Z,52.93
2018-11-25T16:46:19.250Z,52.37
2018-11-25T16:48:47.764Z,54.73
2018-11-25T16:51:16.035Z,50.37
2018-11-25T16:53:44.275Z,51.50
2018-11-25T16:56:12.503Z,48.33
2018-11-25T16:58:40.847Z,49.47
2018-11-25T17:01:10.076Z,52.20
2018-11-25T17:03:37.462Z,51.50
2018-11-25T17:06:06.395Z,53.63
2018-11-25T17:08:35.318Z,56.87
2018-11-25T17:11:03.559Z,54.70
2018-11-25T17:13:31.838Z,54.37
2018-11-25T17:16:00.119Z,50.70
2018-11-25T17:18:28.387Z,56.13
2018-11-25T17:20:56.699Z,52.30
2018-11-25T17:23:24.951Z,55.53
2018-11-25T17:25:53.480Z,51.63
2018-11-25T17:28:21.750Z,52.37
2018-11-25T17:30:49.968Z,58.60
2018-11-25T17:33:18.228Z,53.17
2018-11-25T17:35:46.471Z,53.93
2018-11-25T17:38:14.696Z,50.07
2018-11-25T17:40:42.968Z,53.70
2018-11-25T17:43:12.130Z,59.40
2018-11-25T17:45:40.370Z,59.77
2018-11-25T17:48:08.610Z,55.53
2018-11-25T17:50:36.839Z,61.43
2018-11-25T17:53:05.355Z,72.17
2018-11-25T17:55:43.980Z,70.57
2018-11-25T17:58:12.244Z,63.53
2018-11-25T18:00:44.321Z,67.57
2018-11-25T18:03:14.324Z,73.30
2018-11-25T18:05:42.702Z,66.80
2018-11-25T18:08:10.939Z,69.13
2018-11-25T18:10:39.189Z,76.30
2018-11-25T18:13:07.455Z,81.67
2018-11-25T18:15:35.883Z,80.77
2018-11-25T18:18:07.168Z,84.60
2018-11-25T18:20:36.863Z,85.10
2018-11-25T18:23:05.532Z,83.60
2018-11-25T18:25:33.816Z,83.10
2018-11-25T18:28:02.048Z,81.60
2018-11-25T18:30:30.324Z,87.93
2018-11-25T18:32:58.565Z,86.47
2018-11-25T18:35:26.875Z,85.10
2018-11-25T18:37:55.124Z,86.70
2018-11-25T18:40:23.383Z,92.73
2018-11-25T18:42:51.607Z,89.03
2018-11-25T18:45:19.900Z,85.70
2018-11-25T18:47:48.708Z,93.77
2018-11-25T18:50:17.307Z,87.30
2018-11-25T18:52:46.605Z,84.53
2018-11-25T18:55:14.267Z,88.37
2018-11-25T18:57:42.500Z,89.10
2018-11-25T19:00:12.483Z,85.47
2018-11-25T19:02:41.425Z,97.60
2018-11-25T19:05:09.751Z,93.67
2018-11-25T19:07:38.147Z,88.47
2018-11-25T19:10:08.491Z,88.83
2018-11-25T19:12:44.092Z,95.73
2018-11-25T19:15:05.907Z,101.23
2018-11-25T19:17:34.172Z,87.17
2018-11-25T19:20:02.399Z,86.13
2018-11-25T19:22:30.630Z,97.27
2018-11-25T19:24:58.860Z,95.93
2018-11-25T19:27:27.115Z,89.83
2018-11-25T19:29:55.388Z,88.57
2018-11-25T19:32:24.026Z,92.10
2018-11-25T19:34:52.256Z,94.87
2018-11-25T19:37:20.490Z,90.47
2018-11-25T19:39:48.762Z,97.60
2018-11-25T19:42:17.023Z,96.40
2018-11-25T19:44:45.281Z,95.47
2018-11-25T19:47:13.655Z,95.70
2018-11-25T19:49:41.891Z,92.20
2018-11-25T19:52:10.135Z,97.60
2018-11-25T19:54:38.420Z,107.13
2018-11-25T19:57:06.658Z,107.93
2018-11-25T19:59:34.899Z,97.43
2018-11-25T20:02:03.138Z,104.13
2018-11-25T20:04:31.409Z,105.50
2018-11-25T20:06:59.684Z,105.43
2018-11-25T20:09:31.001Z,98.40
2018-11-25T20:11:59.268Z,106.40
2018-11-25T20:14:27.518Z,104.23
2018-11-25T20:17:01.604Z,116.83
2018-11-25T20:19:29.903Z,107.17
2018-11-25T20:22:03.369Z,110.73
2018-11-25T20:24:31.625Z,105.17
2018-11-25T20:27:05.491Z,109.77
2018-11-25T20:29:33.732Z,102.80
2018-11-25T20:32:07.210Z,103.00
2018-11-25T20:34:35.453Z,119.67
2018-11-25T20:37:03.715Z,112.83
2018-11-25T20:39:34.364Z,111.73
2018-11-25T20:42:02.663Z,106.80
2018-11-25T20:44:30.959Z,113.93
2018-11-25T20:47:05.553Z,100.73
2018-11-25T20:49:34.221Z,116.47
2018-11-25T20:52:07.816Z,115.03
2018-11-25T20:54:36.066Z,104.63
2018-11-25T20:57:04.427Z,108.27
2018-11-25T20:59:32.732Z,109.83
2018-11-25T21:02:00.980Z,107.83
2018-11-25T21:04:29.212Z,109.57
2018-11-25T21:06:57.455Z,108.33
2018-11-25T21:09:25.716Z,109.40
2018-11-25T21:11:53.961Z,106.20
2018-11-25T21:14:22.217Z,109.40
2018-11-25T21:16:50.464Z,102.47
2018-11-25T21:19:18.748Z,99.97
2018-11-25T21:21:47.027Z,105.90
2018-11-25T21:24:15.283Z,107.97
2018-11-25T21:26:43.580Z,98.00
2018-11-25T21:29:12.237Z,102.63
2018-11-25T21:31:40.544Z,113.23
2018-11-25T21:34:08.802Z,101.53
2018-11-25T21:36:37.319Z,106.70
2018-11-25T21:39:08.835Z,101.17
2018-11-25T21:41:37.296Z,104.07
2018-11-25T21:44:06.175Z,101.47
2018-11-25T21:46:34.628Z,91.93
2018-11-25T21:49:02.876Z,97.30
2018-11-25T21:51:31.184Z,111.93
2018-11-25T21:53:59.471Z,105.73
2018-11-25T21:56:27.754Z,105.23
2018-11-25T21:58:56.014Z,108.87
2018-11-25T22:01:24.247Z,106.93
2018-11-25T22:03:52.495Z,99.37
2018-11-25T22:06:20.771Z,116.77
2018-11-25T22:08:49.115Z,103.33
2018-11-25T22:11:17.392Z,113.22
2018-11-25T22:13:45.627Z,101.00
2018-11-25T22:16:13.930Z,102.60
2018-11-25T22:18:42.180Z,93.27
2018-11-25T22:21:10.495Z,92.83
2018-11-25T22:23:38.873Z,91.37
2018-11-25T22:26:07.140Z,106.23
2018-11-25T22:28:35.419Z,103.27
2018-11-25T22:31:03.735Z,101.33
2018-11-25T22:33:32.056Z,107.60
2018-11-25T22:36:00.355Z,108.90
2018-11-25T22:38:28.631Z,100.07
2018-11-25T22:40:56.866Z,105.13
2018-11-25T22:43:25.120Z,96.80
2018-11-25T22:45:53.418Z,100.03
2018-11-25T22:48:21.783Z,109.33
2018-11-25T22:50:50.121Z,99.07
2018-11-25T22:53:19.015Z,100.70
2018-11-25T22:55:47.276Z,94.57
2018-11-25T22:58:15.543Z,86.63
2018-11-25T23:00:43.915Z,99.00
2018-11-25T23:03:12.228Z,86.63
2018-11-25T23:05:46.096Z,94.47
2018-11-25T23:08:14.374Z,97.53
2018-11-25T23:10:42.648Z,93.77
2018-11-25T23:13:10.904Z,99.77
2018-11-25T23:15:39.407Z,94.00
2018-11-25T23:18:07.671Z,86.83
2018-11-25T23:20:36.766Z,91.23
2018-11-25T23:23:05.254Z,106.07
2018-11-25T23:25:33.555Z,99.20
2018-11-25T23:28:01.823Z,89.57
2018-11-25T23:30:30.100Z,92.70
2018-11-25T23:32:58.433Z,98.07
2018-11-25T23:35:27.462Z,85.23
2018-11-25T23:37:55.737Z,90.73
2018-11-25T23:40:24.003Z,95.77
2018-11-25T23:42:52.291Z,91.30
2018-11-25T23:45:20.535Z,88.00
2018-11-25T23:47:48.883Z,90.07
2018-11-25T23:50:17.169Z,99.33
2018-11-25T23:52:45.842Z,91.77
2018-11-25T23:55:14.430Z,88.67
2018-11-25T23:57:42.707Z,90.37
